Time;durP1;ratioP1;P1;durP2;ratioP2;P2;SDS_P1;SDS_P2;PMS_P1;PMS_P2;Temp;Humidity;BMP_temperature;BMP_pressure;BME280_temperature;BME280_humidity;BME280_pressure;Samples;Min_cycle;Max_cycle;Signal;HPM_P1;HPM_P2
2021/06/06 00:00:59;;;;;;;77.17;58.90;;;18.20;99.90;;;;;;6215538;23;20403;-73
2021/06/06 00:03:30;;;;;;;71.97;50.40;;;18.20;99.90;;;;;;6189231;23;20415;-74
2021/06/06 00:06:01;;;;;;;79.17;53.23;;;18.20;99.90;;;;;;6225433;23;20794;-73
2021/06/06 00:08:30;;;;;;;71.97;48.90;;;18.10;99.90;;;;;;6216103;23;20399;-73
2021/06/06 00:11:01;;;;;;;82.72;55.33;;;18.10;99.90;;;;;;6225457;23;20411;-74
2021/06/06 00:13:28;;;;;;;71.77;51.20;;;18.10;99.90;;;;;;6189084;23;20168;-73
2021/06/06 00:15:56;;;;;;;73.40;51.30;;;18.10;99.90;;;;;;6226233;23;20418;-74
2021/06/06 00:18:25;;;;;;;68.13;48.27;;;18.10;99.90;;;;;;6225400;23;20391;-74
2021/06/06 00:20:54;;;;;;;71.37;49.30;;;18.00;99.90;;;;;;6225638;23;20399;-73
2021/06/06 00:23:21;;;;;;;71.15;48.90;;;18.00;99.90;;;;;;6224605;23;20484;-73
2021/06/06 00:25:49;;;;;;;73.60;46.30;;;18.00;99.90;;;;;;6225125;23;20188;-74
2021/06/06 00:28:17;;;;;;;59.50;43.20;;;18.00;99.90;;;;;;6225338;23;20440;-73
2021/06/06 00:30:44;;;;;;;57.73;42.17;;;18.00;99.90;;;;;;6189704;23;20407;-73
2021/06/06 00:33:12;;;;;;;52.87;39.97;;;18.00;99.90;;;;;;6188521;23;20450;-73
2021/06/06 00:35:40;;;;;;;54.87;40.90;;;18.00;99.90;;;;;;6188763;23;20835;-73
2021/06/06 00:38:09;;;;;;;54.23;39.63;;;17.90;99.90;;;;;;6225552;23;20893;-73
2021/06/06 00:40:37;;;;;;;50.60;37.10;;;17.90;99.90;;;;;;6225474;23;20453;-74
2021/06/06 00:43:08;;;;;;;49.70;39.30;;;17.90;99.90;;;;;;6225664;23;20727;-73
2021/06/06 00:45:42;;;;;;;50.53;37.40;;;17.90;99.90;;;;;;6188590;23;20427;-73
2021/06/06 00:48:12;;;;;;;46.83;36.33;;;17.90;99.90;;;;;;6188597;23;20438;-73
2021/06/06 00:50:43;;;;;;;50.30;37.90;;;17.80;99.90;;;;;;6215114;23;20881;-74
2021/06/06 00:53:15;;;;;;;51.63;37.20;;;17.80;99.90;;;;;;6189054;23;20882;-73
2021/06/06 00:55:43;;;;;;;49.57;36.03;;;17.80;99.90;;;;;;6225431;23;20415;-74
2021/06/06 00:58:13;;;;;;;45.30;35.03;;;17.80;99.90;;;;;;6188783;23;20482;-73
2021/06/06 01:00:44;;;;;;;50.63;36.57;;;17.80;99.90;;;;;;6188410;23;20494;-73
2021/06/06 01:03:12;;;;;;;48.40;37.27;;;17.80;99.90;;;;;;6225225;23;20402;-73
2021/06/06 01:05:46;;;;;;;51.70;37.03;;;17.70;99.90;;;;;;6227005;23;20437;-73
2021/06/06 01:08:19;;;;;;;52.63;38.40;;;17.70;99.90;;;;;;6190550;23;20438;-74
2021/06/06 01:10:54;;;;;;;47.57;36.00;;;17.70;99.90;;;;;;6190546;23;20415;-74
2021/06/06 01:13:26;;;;;;;52.27;37.67;;;17.70;99.90;;;;;;6227573;23;20388;-74
2021/06/06 01:16:00;;;;;;;52.17;38.87;;;17.70;99.90;;;;;;6190279;23;20435;-74
2021/06/06 01:18:34;;;;;;;56.33;42.00;;;17.70;99.90;;;;;;6190734;23;20795;-74
2021/06/06 01:21:21;;;;;;;55.50;40.47;;;17.70;99.90;;;;;;6190420;23;20419;-74
2021/06/06 01:24:21;;;;;;;61.97;45.78;;;17.70;99.90;;;;;;6226300;23;20398;-73
2021/06/06 01:26:55;;;;;;;55.50;40.47;;;17.70;99.90;;;;;;6190518;23;20196;-74
2021/06/06 01:29:35;;;;;;;61.00;42.37;;;17.70;99.90;;;;;;6190918;23;20411;-74
2021/06/06 01:32:09;;;;;;;57.30;41.50;;;17.70;99.90;;;;;;6192018;23;20478;-74
2021/06/06 01:34:41;;;;;;;58.03;43.83;;;17.60;99.90;;;;;;6227227;23;20408;-74
2021/06/06 01:37:14;;;;;;;80.17;46.13;;;17.60;99.90;;;;;;6190448;23;20465;-73
2021/06/06 01:39:48;;;;;;;67.80;46.83;;;17.60;99.90;;;;;;6190708;23;20504;-73
2021/06/06 01:42:24;;;;;;;62.53;42.67;;;17.60;99.90;;;;;;6190616;23;20411;-73
2021/06/06 01:44:55;;;;;;;67.37;44.40;;;17.60;99.90;;;;;;6191186;23;20786;-74
2021/06/06 01:47:28;;;;;;;68.00;43.80;;;17.50;99.90;;;;;;6190365;23;20526;-74
2021/06/06 01:50:00;;;;;;;73.47;46.90;;;17.50;99.90;;;;;;6190414;23;20473;-74
2021/06/06 01:52:33;;;;;;;71.33;44.47;;;17.50;99.90;;;;;;6190302;23;20391;-73
2021/06/06 01:55:10;;;;;;;66.70;44.37;;;17.50;99.90;;;;;;6190325;23;20956;-74
2021/06/06 01:57:47;;;;;;;71.20;45.30;;;17.40;99.90;;;;;;6190220;23;20403;-74
2021/06/06 02:00:26;;;;;;;57.97;41.73;;;17.40;99.90;;;;;;6190342;23;20746;-74
2021/06/06 02:03:09;;;;;;;58.43;41.40;;;17.40;99.90;;;;;;6190169;23;20574;-74
2021/06/06 02:05:37;;;;;;;59.03;38.63;;;17.40;99.90;;;;;;6190220;23;20430;-74
2021/06/06 02:08:10;;;;;;;62.77;40.20;;;17.30;99.90;;;;;;6226345;23;20427;-73
2021/06/06 02:10:43;;;;;;;62.07;41.17;;;17.30;99.90;;;;;;6190239;23;20473;-74
2021/06/06 02:13:17;;;;;;;65.63;46.75;;;17.30;99.90;;;;;;6225710;23;20436;-73
2021/06/06 02:15:52;;;;;;;57.17;39.40;;;17.40;99.90;;;;;;6190233;23;20194;-73
2021/06/06 02:18:28;;;;;;;55.63;41.33;;;17.40;99.90;;;;;;6189975;23;20407;-73
2021/06/06 02:20:59;;;;;;;58.83;39.40;;;17.40;99.90;;;;;;6227048;23;20823;-73
2021/06/06 02:23:37;;;;;;;55.67;40.00;;;17.30;99.90;;;;;;6189140;23;20506;-74
2021/06/06 02:26:11;;;;;;;57.67;39.63;;;17.40;99.90;;;;;;6190157;23;20191;-73
2021/06/06 02:28:50;;;;;;;50.13;37.30;;;17.30;99.90;;;;;;6190070;23;20430;-73
2021/06/06 02:31:27;;;;;;;57.53;40.17;;;17.30;99.90;;;;;;6190075;23;20898;-73
2021/06/06 02:34:06;;;;;;;58.00;38.53;;;17.30;99.90;;;;;;6189877;23;20431;-73
2021/06/06 02:36:38;;;;;;;60.67;39.00;;;17.20;99.90;;;;;;6226672;23;20426;-73
2021/06/06 02:39:14;;;;;;;52.53;37.33;;;17.20;99.90;;;;;;6190269;23;20794;-73
2021/06/06 02:42:00;;;;;;;56.30;36.87;;;17.20;99.90;;;;;;6190133;23;20490;-73
2021/06/06 02:44:36;;;;;;;54.40;36.23;;;17.20;99.90;;;;;;6190269;23;20461;-73
2021/06/06 02:47:14;;;;;;;58.50;36.30;;;17.20;99.90;;;;;;6190565;23;20542;-74
2021/06/06 02:49:47;;;;;;;56.30;37.17;;;17.10;99.90;;;;;;6226920;23;20509;-73
2021/06/06 02:52:21;;;;;;;53.63;34.43;;;17.10;99.90;;;;;;6190479;23;20746;-73
2021/06/06 02:54:55;;;;;;;52.77;35.80;;;17.10;99.90;;;;;;6189998;23;20439;-73
2021/06/06 02:57:36;;;;;;;52.43;35.70;;;17.00;99.90;;;;;;6191007;23;20410;-73
2021/06/06 03:00:13;;;;;;;50.60;35.63;;;17.00;99.90;;;;;;6227126;23;20379;-73
2021/06/06 03:02:48;;;;;;;51.27;34.40;;;17.00;99.90;;;;;;6227199;23;20383;-73
2021/06/06 03:05:20;;;;;;;52.50;35.10;;;17.00;99.90;;;;;;6226624;23;20507;-73
2021/06/06 03:07:51;;;;;;;47.83;32.43;;;17.00;99.90;;;;;;6216268;23;20422;-73
2021/06/06 03:10:26;;;;;;;46.87;33.27;;;17.00;99.90;;;;;;6190915;23;20723;-73
2021/06/06 03:13:00;;;;;;;53.05;35.97;;;17.00;99.90;;;;;;6226353;23;20485;-74
2021/06/06 03:15:31;;;;;;;55.20;34.50;;;17.00;99.90;;;;;;6226627;23;20742;-74
2021/06/06 03:18:02;;;;;;;54.20;36.30;;;17.00;99.90;;;;;;6189955;23;20506;-73
2021/06/06 03:20:35;;;;;;;53.77;35.47;;;17.00;99.90;;;;;;6216635;23;20414;-74
2021/06/06 03:23:07;;;;;;;51.67;34.90;;;17.00;99.90;;;;;;6190658;23;20442;-73
2021/06/06 03:25:41;;;;;;;54.73;37.00;;;16.90;99.90;;;;;;6190013;23;20409;-74
2021/06/06 03:28:13;;;;;;;56.80;37.90;;;16.90;99.90;;;;;;6226899;23;20419;-74
2021/06/06 03:30:45;;;;;;;51.93;36.27;;;16.90;99.90;;;;;;6189622;23;20505;-74
2021/06/06 03:33:30;;;;;;;56.40;39.00;;;16.90;99.90;;;;;;6189123;23;20503;-74
2021/06/06 03:35:58;;;;;;;51.03;36.67;;;16.90;99.90;;;;;;6226190;23;20415;-73
2021/06/06 03:38:28;;;;;;;55.20;38.43;;;16.80;99.90;;;;;;6190385;23;20415;-73
2021/06/06 03:40:56;;;;;;;54.63;39.57;;;16.80;99.90;;;;;;6189290;23;20411;-73
2021/06/06 03:43:34;;;;;;;58.23;38.87;;;16.80;99.90;;;;;;6189483;23;20410;-73
2021/06/06 03:46:03;;;;;;;55.33;38.53;;;16.80;99.90;;;;;;6226343;23;20889;-74
2021/06/06 03:48:31;;;;;;;68.57;40.77;;;16.80;99.90;;;;;;6216226;23;20434;-74
2021/06/06 03:51:01;;;;;;;56.07;36.40;;;16.80;99.90;;;;;;6189257;23;20442;-74
2021/06/06 03:53:29;;;;;;;57.07;36.93;;;16.80;99.90;;;;;;6189251;23;20932;-74
2021/06/06 03:56:00;;;;;;;56.23;38.00;;;16.70;99.90;;;;;;6189872;23;20751;-73
2021/06/06 03:58:29;;;;;;;58.17;38.10;;;16.70;99.90;;;;;;6189208;23;20451;-74
2021/06/06 04:01:01;;;;;;;56.60;36.63;;;16.70;99.90;;;;;;6226231;23;20774;-73
2021/06/06 04:03:31;;;;;;;59.10;35.50;;;16.70;99.90;;;;;;6217119;23;20391;-73
2021/06/06 04:06:00;;;;;;;51.57;34.07;;;16.70;99.90;;;;;;6188981;23;20506;-74
2021/06/06 04:08:35;;;;;;;49.07;32.20;;;16.70;99.90;;;;;;6189668;23;20489;-74
2021/06/06 04:11:09;;;;;;;41.20;28.17;;;16.70;99.90;;;;;;6229166;23;20379;-74
2021/06/06 04:13:42;;;;;;;38.47;26.50;;;16.70;99.90;;;;;;6191394;23;20893;-73
2021/06/06 04:16:14;;;;;;;37.03;27.50;;;16.70;99.90;;;;;;6189769;23;20446;-74
2021/06/06 04:18:42;;;;;;;35.10;25.17;;;16.60;99.90;;;;;;6190571;23;20487;-74
2021/06/06 04:21:15;;;;;;;38.93;26.40;;;16.60;99.90;;;;;;6190634;23;20414;-74
2021/06/06 04:23:43;;;;;;;33.50;24.40;;;16.60;99.90;;;;;;6189776;23;20389;-74
2021/06/06 04:26:13;;;;;;;37.85;26.33;;;16.60;99.90;;;;;;6188407;23;20400;-73
2021/06/06 04:28:44;;;;;;;32.77;24.17;;;16.70;99.90;;;;;;6226865;23;20199;-73
2021/06/06 04:31:20;;;;;;;35.27;24.20;;;16.70;99.90;;;;;;6189505;23;20438;-73
2021/06/06 04:33:49;;;;;;;31.00;22.60;;;16.70;99.90;;;;;;6226258;23;20415;-73
2021/06/06 04:36:19;;;;;;;32.80;23.97;;;16.70;99.90;;;;;;6189553;23;20438;-73
2021/06/06 04:38:48;;;;;;;35.40;26.60;;;16.60;99.90;;;;;;6189322;23;20401;-74
2021/06/06 04:41:18;;;;;;;36.60;26.17;;;16.60;99.90;;;;;;6188864;23;20747;-73
2021/06/06 04:43:46;;;;;;;40.97;26.83;;;16.60;99.90;;;;;;6189867;23;20454;-73
2021/06/06 04:46:15;;;;;;;40.10;27.10;;;16.60;99.90;;;;;;6225623;23;20898;-73
2021/06/06 04:48:47;;;;;;;38.83;25.27;;;16.60;99.90;;;;;;6225314;23;20427;-73
2021/06/06 04:51:19;;;;;;;39.57;26.80;;;16.60;99.90;;;;;;6188784;23;20421;-73
2021/06/06 04:53:59;;;;;;;37.13;25.23;;;16.60;99.90;;;;;;6215860;23;20393;-73
2021/06/06 04:56:28;;;;;;;33.03;24.03;;;16.60;99.90;;;;;;6188820;23;20462;-74
2021/06/06 04:58:59;;;;;;;35.30;23.20;;;16.60;99.90;;;;;;6189367;23;20407;-73
2021/06/06 05:01:31;;;;;;;31.57;23.10;;;16.60;99.90;;;;;;6225954;23;20404;-73
2021/06/06 05:04:05;;;;;;;31.73;21.97;;;16.60;99.90;;;;;;6226016;23;20383;-73
2021/06/06 05:06:34;;;;;;;30.73;22.03;;;16.60;99.90;;;;;;6189168;23;20518;-73
2021/06/06 05:09:06;;;;;;;31.20;21.90;;;16.60;99.90;;;;;;6188600;23;20439;-73
2021/06/06 05:11:36;;;;;;;33.73;22.60;;;16.60;99.90;;;;;;6189249;23;20385;-73
2021/06/06 05:14:06;;;;;;;32.03;23.70;;;16.60;99.90;;;;;;6225442;23;20374;-73
2021/06/06 05:16:36;;;;;;;32.05;23.17;;;16.60;99.90;;;;;;6188341;23;20391;-73
2021/06/06 05:19:05;;;;;;;29.20;22.57;;;16.60;99.90;;;;;;6215932;23;20176;-73
2021/06/06 05:21:36;;;;;;;33.03;22.50;;;16.60;99.90;;;;;;6188870;23;20406;-73
2021/06/06 05:24:05;;;;;;;31.90;23.60;;;16.60;99.90;;;;;;6215461;23;20411;-74
2021/06/06 05:26:35;;;;;;;31.30;24.10;;;16.60;99.90;;;;;;6226238;23;20422;-74
2021/06/06 05:29:04;;;;;;;34.00;25.70;;;16.60;99.90;;;;;;6190295;23;20533;-74
2021/06/06 05:31:33;;;;;;;33.40;24.87;;;16.60;99.90;;;;;;6188663;23;20386;-74
2021/06/06 05:34:00;;;;;;;35.10;25.87;;;16.60;99.90;;;;;;6188564;23;20429;-73
2021/06/06 05:36:30;;;;;;;40.03;26.27;;;16.60;99.90;;;;;;6225625;23;20415;-74
2021/06/06 05:38:58;;;;;;;38.17;28.17;;;16.60;99.90;;;;;;6225289;23;20392;-74
2021/06/06 05:41:25;;;;;;;36.17;26.07;;;16.60;99.90;;;;;;6225439;23;20402;-73
2021/06/06 05:43:53;;;;;;;37.77;26.63;;;16.60;99.90;;;;;;6225843;23;20370;-73
2021/06/06 05:46:21;;;;;;;34.73;25.17;;;16.70;99.90;;;;;;6188992;23;20520;-73
2021/06/06 05:48:49;;;;;;;33.63;25.07;;;16.70;99.90;;;;;;6215164;23;20431;-73
2021/06/06 05:51:18;;;;;;;36.83;27.20;;;16.70;99.90;;;;;;6226628;23;20427;-73
2021/06/06 05:53:50;;;;;;;40.67;26.53;;;16.70;99.90;;;;;;6227550;23;20391;-73
2021/06/06 05:56:18;;;;;;;36.30;26.67;;;16.70;99.90;;;;;;6190510;23;20530;-73
2021/06/06 05:58:46;;;;;;;41.27;30.10;;;16.70;99.90;;;;;;6227374;23;20427;-73
2021/06/06 06:01:15;;;;;;;38.37;26.47;;;16.70;99.90;;;;;;6190080;23;20412;-73
2021/06/06 06:03:42;;;;;;;35.80;26.40;;;16.70;99.90;;;;;;6190398;23;20469;-73
2021/06/06 06:06:10;;;;;;;35.57;24.77;;;16.70;99.90;;;;;;6226835;23;20411;-73
2021/06/06 06:08:41;;;;;;;36.40;24.80;;;16.70;99.90;;;;;;6226884;23;20452;-74
2021/06/06 06:11:14;;;;;;;37.77;26.30;;;16.70;99.90;;;;;;6227370;23;20837;-73
2021/06/06 06:13:42;;;;;;;35.93;26.10;;;16.80;99.90;;;;;;6228068;23;20380;-73
2021/06/06 06:16:20;;;;;;;35.57;25.27;;;16.80;99.90;;;;;;6190403;23;20460;-73
2021/06/06 06:18:49;;;;;;;35.87;24.80;;;16.80;99.90;;;;;;6190417;23;20382;-74
2021/06/06 06:21:17;;;;;;;39.42;28.48;;;16.70;99.90;;;;;;6225120;23;20416;-73
2021/06/06 06:23:45;;;;;;;33.73;24.73;;;16.80;99.90;;;;;;6190125;23;20576;-73
2021/06/06 06:26:19;;;;;;;34.20;23.53;;;16.80;99.90;;;;;;6227691;23;20419;-73
2021/06/06 06:29:04;;;;;;;29.43;22.20;;;16.80;99.90;;;;;;6190877;23;20434;-73
2021/06/06 06:31:44;;;;;;;27.88;21.67;;;16.80;99.90;;;;;;6188876;23;20463;-73
2021/06/06 06:34:18;;;;;;;23.67;18.40;;;16.80;99.90;;;;;;6190983;23;20183;-73
2021/06/06 06:36:47;;;;;;;22.93;16.93;;;16.80;99.90;;;;;;6226710;23;20510;-73
2021/06/06 06:39:15;;;;;;;22.47;18.10;;;16.80;99.90;;;;;;6227005;23;20689;-73
2021/06/06 06:41:44;;;;;;;24.53;18.90;;;16.80;99.90;;;;;;6216661;23;20458;-74
2021/06/06 06:44:11;;;;;;;21.50;18.17;;;16.80;99.90;;;;;;6189931;23;20477;-74
2021/06/06 06:46:39;;;;;;;20.97;17.00;;;16.80;99.90;;;;;;6226898;23;20499;-73
2021/06/06 06:49:11;;;;;;;20.90;15.90;;;16.80;99.90;;;;;;6190601;23;20922;-74
2021/06/06 06:51:39;;;;;;;18.07;15.63;;;16.80;99.90;;;;;;6189732;23;20888;-73
2021/06/06 06:54:07;;;;;;;17.30;15.10;;;16.90;99.90;;;;;;6190018;23;20396;-74
2021/06/06 06:56:35;;;;;;;19.57;16.43;;;16.90;99.90;;;;;;6226348;23;20425;-73
2021/06/06 06:59:04;;;;;;;17.17;15.40;;;17.00;99.90;;;;;;6226635;23;20449;-74
2021/06/06 07:01:32;;;;;;;17.87;15.97;;;17.00;99.90;;;;;;6226570;23;20423;-74
2021/06/06 07:03:59;;;;;;;23.03;18.40;;;17.00;99.90;;;;;;6189740;23;20896;-73
2021/06/06 07:06:27;;;;;;;23.17;18.67;;;17.00;99.90;;;;;;6226544;23;20417;-74
2021/06/06 07:08:54;;;;;;;26.93;20.90;;;17.00;99.90;;;;;;6226199;23;20427;-74
2021/06/06 07:11:23;;;;;;;26.33;19.23;;;17.10;99.90;;;;;;6226354;23;20429;-74
2021/06/06 07:13:51;;;;;;;29.43;21.47;;;17.10;99.90;;;;;;6189519;23;20506;-74
2021/06/06 07:16:21;;;;;;;25.93;20.10;;;17.10;99.90;;;;;;6226092;23;20444;-73
2021/06/06 07:18:50;;;;;;;27.50;21.03;;;17.10;99.90;;;;;;6216449;23;20385;-73
2021/06/06 07:21:21;;;;;;;27.60;20.60;;;17.10;99.90;;;;;;6226320;23;20457;-73
2021/06/06 07:23:50;;;;;;;28.03;19.70;;;17.20;99.90;;;;;;6226598;23;20771;-73
2021/06/06 07:26:23;;;;;;;28.30;22.60;;;17.20;99.90;;;;;;6189613;23;20433;-73
2021/06/06 07:28:51;;;;;;;26.97;21.27;;;17.20;99.90;;;;;;6226428;23;20423;-73
2021/06/06 07:31:20;;;;;;;31.47;21.53;;;17.30;99.90;;;;;;6226211;23;20395;-73
2021/06/06 07:33:53;;;;;;;30.10;23.20;;;17.20;99.90;;;;;;6226322;23;20460;-73
2021/06/06 07:36:22;;;;;;;32.37;22.77;;;17.30;99.90;;;;;;6189392;23;20466;-72
2021/06/06 07:38:51;;;;;;;29.13;23.53;;;17.30;99.90;;;;;;6226034;23;20500;-73
2021/06/06 07:41:21;;;;;;;32.40;23.80;;;17.30;99.90;;;;;;6226188;23;20781;-72
2021/06/06 07:43:48;;;;;;;33.80;24.63;;;17.30;99.90;;;;;;6226380;23;20399;-73
2021/06/06 07:46:17;;;;;;;32.63;24.47;;;17.40;99.90;;;;;;6189345;23;20427;-73
2021/06/06 07:48:46;;;;;;;34.70;24.00;;;17.30;99.90;;;;;;6226721;23;20400;-73
2021/06/06 07:51:14;;;;;;;36.67;24.93;;;17.40;99.90;;;;;;6226163;23;20434;-73
2021/06/06 07:53:41;;;;;;;32.50;24.77;;;17.50;99.90;;;;;;6226056;23;20395;-73
2021/06/06 07:56:11;;;;;;;34.73;24.70;;;17.40;99.90;;;;;;6226681;23;20505;-73
2021/06/06 07:58:44;;;;;;;32.20;23.77;;;17.40;99.90;;;;;;6190275;23;20418;-73
2021/06/06 08:01:20;;;;;;;33.80;26.10;;;17.50;99.90;;;;;;6189002;23;20452;-73
2021/06/06 08:03:52;;;;;;;32.17;23.27;;;17.40;99.90;;;;;;6216117;23;20430;-73
2021/06/06 08:06:21;;;;;;;32.70;23.27;;;17.40;99.90;;;;;;6189282;23;20525;-73
2021/06/06 08:09:07;;;;;;;29.17;21.87;;;17.50;99.90;;;;;;6189280;23;20804;-73
2021/06/06 08:11:37;;;;;;;31.30;22.83;;;17.40;99.90;;;;;;6226675;23;20834;-73
2021/06/06 08:14:06;;;;;;;28.70;21.43;;;17.40;99.90;;;;;;6189136;23;20425;-73
2021/06/06 08:16:36;;;;;;;27.90;21.37;;;17.40;99.90;;;;;;6225949;23;20438;-73
2021/06/06 08:19:06;;;;;;;27.87;21.13;;;17.30;99.90;;;;;;6226460;23;20380;-73
2021/06/06 08:21:41;;;;;;;29.53;22.83;;;17.30;99.90;;;;;;6189256;23;20721;-72
2021/06/06 08:24:09;;;;;;;24.27;21.50;;;17.30;99.90;;;;;;6225986;23;20387;-73
2021/06/06 08:26:38;;;;;;;25.45;21.80;;;17.30;99.90;;;;;;6225276;23;20402;-73
2021/06/06 08:29:07;;;;;;;23.77;19.50;;;17.40;99.90;;;;;;6215673;23;20650;-73
2021/06/06 08:31:37;;;;;;;25.67;20.50;;;17.40;99.90;;;;;;6225815;23;20429;-73
2021/06/06 08:34:07;;;;;;;24.53;21.93;;;17.40;99.90;;;;;;6225883;23;20414;-73
2021/06/06 08:36:37;;;;;;;26.53;21.33;;;17.40;99.90;;;;;;6226512;23;20457;-73
2021/06/06 08:39:08;;;;;;;25.33;22.42;;;17.40;99.90;;;;;;6224927;23;20404;-73
2021/06/06 08:41:46;;;;;;;25.77;20.30;;;17.50;99.90;;;;;;6189061;23;20615;-73
2021/06/06 08:44:18;;;;;;;22.97;20.47;;;17.50;99.90;;;;;;6189655;23;20415;-73
2021/06/06 08:46:56;;;;;;;24.10;21.70;;;17.50;99.90;;;;;;6188908;23;20430;-73
2021/06/06 08:49:28;;;;;;;24.77;21.87;;;17.50;99.90;;;;;;6189056;23;20819;-72
2021/06/06 08:52:09;;;;;;;25.37;22.07;;;17.50;99.90;;;;;;6215856;23;20446;-71
2021/06/06 08:54:42;;;;;;;25.83;21.10;;;17.40;99.90;;;;;;6188774;23;20415;-71
2021/06/06 08:57:18;;;;;;;23.50;21.20;;;17.40;99.90;;;;;;6226362;23;20407;-72
2021/06/06 08:59:52;;;;;;;25.00;22.40;;;17.50;99.90;;;;;;6225560;23;20383;-71
2021/06/06 09:02:26;;;;;;;23.03;20.57;;;17.50;99.90;;;;;;6226315;23;20729;-76
2021/06/06 09:04:55;;;;;;;24.83;22.23;;;17.40;99.90;;;;;;6225459;23;20422;-73
2021/06/06 09:07:31;;;;;;;22.17;19.90;;;17.40;99.90;;;;;;6225844;23;20482;-73
2021/06/06 09:10:00;;;;;;;22.70;20.40;;;17.50;99.90;;;;;;6188693;23;20431;-75
2021/06/06 09:12:28;;;;;;;21.20;18.90;;;17.50;99.90;;;;;;6225676;23;20391;-75
2021/06/06 09:14:56;;;;;;;22.00;19.70;;;17.50;99.90;;;;;;6225463;23;20444;-75
2021/06/06 09:17:37;;;;;;;22.27;20.10;;;17.50;99.90;;;;;;6189191;23;20399;-75
2021/06/06 09:20:21;;;;;;;22.30;20.00;;;17.50;99.90;;;;;;6226339;23;20462;-75
2021/06/06 09:22:49;;;;;;;24.33;21.93;;;17.50;99.90;;;;;;6188823;23;20411;-75
2021/06/06 09:25:27;;;;;;;23.43;21.10;;;17.60;99.90;;;;;;6226014;23;20985;-75
2021/06/06 09:28:02;;;;;;;25.07;21.93;;;17.60;99.90;;;;;;6190720;23;20801;-75
2021/06/06 09:30:31;;;;;;;21.60;19.50;;;17.60;99.90;;;;;;6227758;23;20415;-75
2021/06/06 09:33:14;;;;;;;21.00;18.80;;;17.60;99.90;;;;;;6190886;23;20514;-75
2021/06/06 09:35:51;;;;;;;18.57;16.77;;;17.60;99.90;;;;;;6190742;23;20814;-75
2021/06/06 09:38:24;;;;;;;17.93;16.13;;;17.60;99.90;;;;;;6190596;23;20862;-75
2021/06/06 09:40:52;;;;;;;17.30;15.63;;;17.60;99.90;;;;;;6191991;23;20494;-77
2021/06/06 09:43:27;;;;;;;17.60;15.90;;;17.60;99.90;;;;;;6190927;23;20440;-74
2021/06/06 09:46:06;;;;;;;16.00;14.50;;;17.60;99.90;;;;;;6217206;23;20191;-75
2021/06/06 09:48:40;;;;;;;17.00;15.30;;;17.70;99.90;;;;;;6227828;23;20391;-76
2021/06/06 09:51:14;;;;;;;15.43;14.13;;;17.70;99.90;;;;;;6190255;23;20514;-75
2021/06/06 09:53:43;;;;;;;15.27;13.80;;;17.80;99.90;;;;;;6190718;23;20469;-75
2021/06/06 09:56:16;;;;;;;15.50;14.20;;;17.80;99.90;;;;;;6190401;23;20426;-75
2021/06/06 09:58:44;;;;;;;14.90;13.50;;;17.80;99.90;;;;;;6227880;23;20407;-75
2021/06/06 10:01:29;;;;;;;14.97;13.50;;;17.90;99.90;;;;;;6190789;23;20408;-75
2021/06/06 10:04:00;;;;;;;15.77;14.47;;;17.90;99.90;;;;;;6190829;23;20411;-76
2021/06/06 10:06:38;;;;;;;15.73;14.33;;;17.90;99.90;;;;;;6227083;23;20418;-75
2021/06/06 10:09:11;;;;;;;14.90;13.30;;;18.00;99.90;;;;;;6217283;23;20707;-75
2021/06/06 10:11:50;;;;;;;15.50;14.10;;;18.00;99.90;;;;;;6227220;23;20510;-75
2021/06/06 10:14:22;;;;;;;14.80;13.30;;;18.00;99.90;;;;;;6190987;23;20497;-75
2021/06/06 10:16:51;;;;;;;16.23;14.73;;;18.10;99.90;;;;;;6217239;23;20513;-74
2021/06/06 10:19:23;;;;;;;15.10;13.63;;;18.10;99.90;;;;;;6190398;23;20473;-74
2021/06/06 10:21:56;;;;;;;18.30;16.40;;;18.20;99.90;;;;;;6228281;23;20394;-76
2021/06/06 10:24:31;;;;;;;16.60;15.00;;;18.20;99.90;;;;;;6190718;23;20403;-75
2021/06/06 10:27:05;;;;;;;16.70;15.20;;;18.20;99.90;;;;;;6227424;23;20892;-74
2021/06/06 10:29:38;;;;;;;16.53;14.87;;;18.20;99.90;;;;;;6227122;23;20407;-75
2021/06/06 10:32:13;;;;;;;19.07;17.23;;;18.20;99.90;;;;;;6217231;23;20392;-76
2021/06/06 10:34:48;;;;;;;18.60;16.90;;;18.20;99.90;;;;;;6226461;23;20440;-75
2021/06/06 10:37:17;;;;;;;16.80;15.20;;;18.30;99.90;;;;;;6226834;23;20437;-74
2021/06/06 10:39:56;;;;;;;17.20;15.60;;;18.30;99.90;;;;;;6189932;23;20747;-75
2021/06/06 10:42:29;;;;;;;17.60;15.80;;;18.30;99.90;;;;;;6190208;23;20465;-75
2021/06/06 10:45:04;;;;;;;17.30;15.30;;;18.30;99.90;;;;;;6226905;23;20469;-75
2021/06/06 10:47:44;;;;;;;18.10;16.43;;;18.30;99.90;;;;;;6227031;23;20918;-74
2021/06/06 10:50:24;;;;;;;18.00;16.40;;;18.30;99.90;;;;;;6227966;23;20465;-75
2021/06/06 10:53:07;;;;;;;18.57;16.83;;;18.30;99.90;;;;;;6189962;23;20403;-74
2021/06/06 10:55:45;;;;;;;17.57;15.90;;;18.30;99.90;;;;;;6226948;23;20419;-75
2021/06/06 10:58:16;;;;;;;17.60;16.03;;;18.30;99.90;;;;;;6189671;23;20399;-74
2021/06/06 11:00:56;;;;;;;19.80;18.10;;;18.30;99.90;;;;;;6226914;23;20430;-75
2021/06/06 11:03:27;;;;;;;19.53;17.73;;;18.30;99.90;;;;;;6226831;23;20376;-74
2021/06/06 11:06:27;;;;;;;19.03;17.30;;;18.30;99.90;;;;;;6227055;23;20415;-74
2021/06/06 11:09:18;;;;;;;20.13;18.33;;;18.30;99.90;;;;;;6229423;23;20383;-75
2021/06/06 11:11:57;;;;;;;21.00;18.93;;;18.40;99.90;;;;;;6226904;23;20893;-75
2021/06/06 11:14:38;;;;;;;19.97;18.00;;;18.40;99.90;;;;;;6226837;23;20384;-74
2021/06/06 11:17:11;;;;;;;22.17;20.03;;;18.40;99.90;;;;;;6189455;23;20415;-74
2021/06/06 11:19:38;;;;;;;20.70;18.80;;;18.40;99.90;;;;;;6226351;23;20459;-75
2021/06/06 11:22:30;;;;;;;21.60;19.57;;;18.40;99.90;;;;;;6227304;23;20779;-75
2021/06/06 11:25:01;;;;;;;22.10;19.97;;;18.40;99.90;;;;;;6226971;23;20419;-77
2021/06/06 11:27:33;;;;;;;21.20;19.20;;;18.40;99.90;;;;;;6226839;23;20380;-77
2021/06/06 11:30:32;;;;;;;24.57;22.10;;;18.40;99.90;;;;;;6216663;23;20407;-76
2021/06/06 11:33:03;;;;;;;25.50;22.90;;;18.40;99.90;;;;;;6227089;23;20782;-74
2021/06/06 11:35:50;;;;;;;26.13;23.43;;;18.40;99.90;;;;;;6225699;23;20493;-75
2021/06/06 11:38:35;;;;;;;26.53;23.83;;;18.50;99.90;;;;;;6227173;23;20375;-76
2021/06/06 11:41:39;;;;;;;25.50;22.40;;;18.50;99.90;;;;;;6189546;23;20735;-75
2021/06/06 11:44:25;;;;;;;25.67;23.10;;;18.50;99.90;;;;;;6187280;23;20501;-76
2021/06/06 11:46:57;;;;;;;27.25;24.02;;;18.50;99.90;;;;;;6215256;23;20880;-74
2021/06/06 11:49:35;;;;;;;24.63;22.10;;;18.60;99.90;;;;;;6189210;23;20212;-74
2021/06/06 11:52:09;;;;;;;24.87;22.27;;;18.60;99.90;;;;;;6226511;23;20415;-74
2021/06/06 11:54:42;;;;;;;28.47;25.40;;;18.60;99.90;;;;;;6189421;23;20493;-74
2021/06/06 11:57:21;;;;;;;27.10;24.20;;;18.60;99.90;;;;;;6226104;23;20388;-74
2021/06/06 11:59:55;;;;;;;25.80;23.00;;;18.60;99.90;;;;;;6226472;23;20430;-74
2021/06/06 12:02:25;;;;;;;30.00;25.90;;;18.60;99.90;;;;;;6226374;23;20463;-74
2021/06/06 12:04:55;;;;;;;28.93;26.00;;;18.60;99.90;;;;;;6226202;23;20418;-73
2021/06/06 12:07:26;;;;;;;31.90;28.60;;;18.60;99.90;;;;;;6225877;23;20396;-75
2021/06/06 12:09:56;;;;;;;28.93;25.93;;;18.60;99.90;;;;;;6226590;23;20767;-74
2021/06/06 12:12:27;;;;;;;29.00;25.90;;;18.70;99.90;;;;;;6227576;23;20449;-73
2021/06/06 12:15:17;;;;;;;29.30;26.37;;;18.70;99.90;;;;;;6226318;23;20415;-74
2021/06/06 12:17:46;;;;;;;29.13;25.97;;;18.80;99.90;;;;;;6225895;23;20383;-73
2021/06/06 12:20:17;;;;;;;29.40;26.43;;;18.80;99.90;;;;;;6226227;23;20395;-74
2021/06/06 12:22:44;;;;;;;29.10;26.00;;;18.90;99.90;;;;;;6189160;23;20502;-74
2021/06/06 12:25:25;;;;;;;28.67;25.67;;;18.90;99.90;;;;;;6225881;23;20453;-74
2021/06/06 12:28:03;;;;;;;28.77;25.77;;;19.00;99.90;;;;;;6189226;23;20395;-74
2021/06/06 12:30:34;;;;;;;29.43;26.43;;;19.00;99.90;;;;;;6189036;23;20951;-74
2021/06/06 12:33:16;;;;;;;28.37;25.57;;;19.00;99.90;;;;;;6219280;23;20410;-74
2021/06/06 12:35:53;;;;;;;28.00;25.20;;;19.10;99.90;;;;;;6225403;23;20802;-74
2021/06/06 12:51:39;;;;;;;31.90;28.37;;;19.20;99.90;;;;;;5953394;24;20205;-73
2021/06/06 12:54:16;;;;;;;31.97;28.23;;;19.20;99.90;;;;;;6004987;23;20448;-76
2021/06/06 12:56:45;;;;;;;29.10;26.00;;;19.20;99.90;;;;;;5985275;23;20945;-72
2021/06/06 12:59:19;;;;;;;32.83;27.87;;;19.30;99.90;;;;;;5985317;23;20447;-73
2021/06/06 13:01:50;;;;;;;30.40;27.27;;;19.30;99.90;;;;;;5987280;23;20505;-73
2021/06/06 13:04:22;;;;;;;29.33;26.43;;;19.40;99.90;;;;;;6106687;23;20402;-73
2021/06/06 13:06:52;;;;;;;28.47;25.57;;;19.40;99.90;;;;;;6097889;23;20430;-72
2021/06/06 13:09:26;;;;;;;28.57;25.70;;;19.50;99.90;;;;;;6097622;23;20458;-72